Time;durP1;ratioP1;P1;durP2;ratioP2;P2;SDS_P1;SDS_P2;PMS_P1;PMS_P2;Temp;Humidity;BMP_temperature;BMP_pressure;BME280_temperature;BME280_humidity;BME280_pressure;Samples;Min_cycle;Max_cycle;Signal;HPM_P1;HPM_P2
2022/01/23 10:00:06;;;;;;;;;;;;;;;5.13;63.79;101627.84;6148780;23;2013;-94
2022/01/23 10:27:21;;;;;;;;;;;;;;;5.14;63.72;101625.00;6109422;23;1153;-94
2022/01/23 10:30:28;;;;;;;;;;;;;;;5.13;63.75;101633.19;6121898;23;637;-96
2022/01/23 10:36:27;;;;;;;;;;;;;;;5.13;63.82;101634.00;6123617;23;875;-96
2022/01/23 11:29:22;;;;;;;;;;;;;;;5.09;63.88;101610.44;6145729;23;1870;-92
2022/01/23 11:31:49;;;;;;;;;;;;;;;5.09;63.97;101610.44;6131753;23;1283;-93
2022/01/23 11:34:16;;;;;;;;;;;;;;;5.08;63.84;101603.44;6129641;23;1180;-93
2022/01/23 11:36:42;;;;;;;;;;;;;;;5.09;63.73;101599.75;6132021;23;1133;-94
2022/01/23 11:39:13;;;;;;;;;;;;;;;5.09;63.90;101594.41;6131403;23;1287;-94
2022/01/23 11:55:27;;;;;;;;;;;;;;;5.06;63.91;101549.34;6051816;23;1578;-93
2022/01/23 11:57:53;;;;;;;;;;;;;;;5.07;64.00;101548.34;6136815;23;1373;-92
2022/01/23 12:00:21;;;;;;;;;;;;;;;5.05;64.08;101555.69;6132547;23;1201;-93
2022/01/23 12:02:47;;;;;;;;;;;;;;;5.04;64.13;101538.00;6134141;23;1240;-96
2022/01/23 12:05:15;;;;;;;;;;;;;;;5.03;64.28;101538.97;6135945;23;1221;-90
2022/01/23 12:07:42;;;;;;;;;;;;;;;5.04;64.25;101544.16;6132163;23;1952;-95
2022/01/23 12:10:08;;;;;;;;;;;;;;;5.04;64.26;101546.00;6132031;23;1172;-92
2022/01/23 12:12:39;;;;;;;;;;;;;;;5.03;64.16;101537.16;6132238;23;1325;-92
2022/01/23 12:17:50;;;;;;;;;;;;;;;5.00;64.30;101526.81;6131492;23;1152;-94
2022/01/23 12:20:17;;;;;;;;;;;;;;;5.02;64.36;101535.47;6131636;23;1177;-95
2022/01/23 12:22:45;;;;;;;;;;;;;;;5.01;64.36;101525.78;6132483;23;1217;-95
2022/01/23 12:25:12;;;;;;;;;;;;;;;5.01;64.24;101529.28;6132648;23;1487;-95
2022/01/23 12:27:38;;;;;;;;;;;;;;;5.01;64.14;101534.63;6130325;23;1938;-94
2022/01/23 12:30:05;;;;;;;;;;;;;;;5.01;64.35;101529.28;6132666;23;1228;-92
2022/01/23 12:32:33;;;;;;;;;;;;;;;5.01;64.17;101528.47;6131816;23;1271;-92
2022/01/23 12:35:00;;;;;;;;;;;;;;;5.03;64.33;101529.16;6133355;23;1288;-91
2022/01/23 12:37:31;;;;;;;;;;;;;;;5.03;64.27;101533.63;6142270;23;1268;-94
2022/01/23 12:42:41;;;;;;;;;;;;;;;5.02;64.15;101516.78;6146635;23;1155;-94
2022/01/23 12:45:08;;;;;;;;;;;;;;;5.00;64.11;101519.63;6143744;23;1244;-92
2022/01/23 12:47:34;;;;;;;;;;;;;;;5.02;64.04;101516.78;6140328;23;1264;-93
2022/01/23 12:50:01;;;;;;;;;;;;;;;5.03;64.16;101509.59;6105921;23;1947;-93
2022/01/23 12:52:27;;;;;;;;;;;;;;;5.03;64.24;101507.78;6130622;23;1439;-93
2022/01/23 12:54:55;;;;;;;;;;;;;;;5.04;64.22;101521.97;6132133;23;1179;-94
2022/01/23 12:57:23;;;;;;;;;;;;;;;5.05;64.18;101540.50;6131979;23;1185;-92
2022/01/23 12:59:49;;;;;;;;;;;;;;;5.05;64.12;101535.16;6128458;23;1236;-91
2022/01/23 13:02:18;;;;;;;;;;;;;;;5.07;64.15;101524.31;6128268;23;1291;-94
2022/01/23 13:04:45;;;;;;;;;;;;;;;5.06;64.09;101522.63;6135614;23;1230;-93
2022/01/23 13:07:16;;;;;;;;;;;;;;;5.07;64.04;101522.47;6132420;23;1312;-93
2022/01/23 13:09:50;;;;;;;;;;;;;;;5.05;64.16;101527.13;6132890;23;1905;-92
2022/01/23 13:12:28;;;;;;;;;;;;;;;5.07;64.01;101532.34;6132582;23;1284;-92
2022/01/23 13:15:00;;;;;;;;;;;;;;;5.06;64.26;101522.63;6132722;23;1191;-93
2022/01/23 13:17:37;;;;;;;;;;;;;;;5.07;64.00;101518.97;6132260;23;1185;-94
2022/01/23 13:31:17;;;;;;;;;;;;;;;5.06;64.20;101520.81;6134083;23;1188;-95
2022/01/23 13:33:44;;;;;;;;;;;;;;;5.06;64.12;101520.81;6139140;23;1220;-95
2022/01/23 13:54:14;;;;;;;;;;;;;;;5.06;64.30;101514.63;6051139;23;1291;-93
2022/01/23 13:59:27;;;;;;;;;;;;;;;5.03;64.35;101517.59;6046018;23;1357;-93
2022/01/23 14:02:06;;;;;;;;;;;;;;;5.05;64.01;101518.28;6052576;23;1337;-95
2022/01/23 14:07:10;;;;;;;;;;;;;;;5.05;64.13;101521.78;6134456;23;1156;-96
2022/01/23 14:09:37;;;;;;;;;;;;;;;5.05;64.05;101513.78;6103701;23;1944;-96
2022/01/23 14:12:03;;;;;;;;;;;;;;;5.05;64.23;101519.13;6104472;23;1264;-96
2022/01/23 14:14:30;;;;;;;;;;;;;;;5.03;64.37;101517.59;6103441;23;1199;-95
2022/01/23 14:16:56;;;;;;;;;;;;;;;5.03;64.22;101514.94;6103827;23;1342;-95
2022/01/23 14:19:23;;;;;;;;;;;;;;;5.02;64.38;101516.78;6103564;23;1298;-95
2022/01/23 14:21:49;;;;;;;;;;;;;;;5.00;64.47;101511.63;6103275;23;1176;-96
2022/01/23 14:24:16;;;;;;;;;;;;;;;5.04;64.36;101522.81;6103784;23;1308;-96
2022/01/23 14:26:44;;;;;;;;;;;;;;;5.02;64.24;101522.13;6103453;23;1286;-96
2022/01/23 14:29:10;;;;;;;;;;;;;;;5.03;64.30;101531.81;6103225;23;1897;-96
2022/01/23 14:31:38;;;;;;;;;;;;;;;5.03;64.18;101525.63;6104098;23;1318;-96
2022/01/23 14:34:07;;;;;;;;;;;;;;;5.03;64.43;101525.63;6104037;23;1343;-96
2022/01/23 14:36:34;;;;;;;;;;;;;;;5.01;64.51;101533.81;6103498;23;1255;-95
2022/01/23 14:39:00;;;;;;;;;;;;;;;5.02;64.30;101538.13;6103653;23;1275;-96
2022/01/23 14:41:27;;;;;;;;;;;;;;;5.00;64.18;101530.31;6102982;23;1286;-96
2022/01/23 14:43:53;;;;;;;;;;;;;;;4.99;64.45;101528.59;6103903;23;1180;-96
2022/01/23 14:46:20;;;;;;;;;;;;;;;4.99;64.37;101525.94;6103434;23;1178;-96
2022/01/23 14:48:48;;;;;;;;;;;;;;;4.98;64.26;101534.97;6102983;23;1905;-96
2022/01/23 14:51:17;;;;;;;;;;;;;;;4.98;64.32;101526.94;6103068;23;1221;-95
2022/01/23 14:53:44;;;;;;;;;;;;;;;4.98;64.31;101523.44;6103111;23;1328;-96
2022/01/23 14:56:12;;;;;;;;;;;;;;;4.98;64.39;101524.28;6103389;23;1291;-95
2022/01/23 14:58:38;;;;;;;;;;;;;;;4.97;64.47;101516.41;6102895;23;1298;-96
2022/01/23 15:01:05;;;;;;;;;;;;;;;4.96;64.26;101514.75;6101942;23;1157;-96
2022/01/23 15:03:31;;;;;;;;;;;;;;;4.96;64.46;101512.91;6103520;23;1294;-96
2022/01/23 15:05:58;;;;;;;;;;;;;;;4.97;64.52;101519.94;6102859;23;1314;-96
2022/01/23 15:08:25;;;;;;;;;;;;;;;4.96;64.40;101512.06;6103069;23;1900;-96
2022/01/23 15:10:51;;;;;;;;;;;;;;;4.94;64.29;101512.25;6103209;23;1279;-95
2022/01/23 15:13:19;;;;;;;;;;;;;;;4.95;64.66;101513.91;6103604;23;1188;-95
2022/01/23 15:15:46;;;;;;;;;;;;;;;4.94;64.47;101514.06;6103026;23;1180;-96
2022/01/23 15:18:12;;;;;;;;;;;;;;;4.95;64.58;101511.25;6102880;23;1290;-95
2022/01/23 15:20:39;;;;;;;;;;;;;;;4.95;64.71;101513.09;6103823;23;1194;-96
2022/01/23 15:23:05;;;;;;;;;;;;;;;4.94;64.58;101514.94;6103134;23;1180;-96
2022/01/23 15:25:32;;;;;;;;;;;;;;;4.95;64.62;101529.09;6103068;23;1181;-96
2022/01/23 15:27:59;;;;;;;;;;;;;;;4.94;64.64;101522.94;6103058;23;1192;-96
2022/01/23 15:30:26;;;;;;;;;;;;;;;4.93;64.49;101521.25;6102724;23;1897;-96
2022/01/23 15:32:52;;;;;;;;;;;;;;;4.94;64.53;101514.94;6103475;23;1312;-95
2022/01/23 15:35:19;;;;;;;;;;;;;;;4.94;64.46;101522.06;6102956;23;1358;-96
2022/01/23 15:37:45;;;;;;;;;;;;;;;4.97;64.22;101514.59;6103356;23;1253;-95
2022/01/23 15:40:12;;;;;;;;;;;;;;;4.94;64.58;101520.25;6102880;23;1241;-96
2022/01/23 15:42:38;;;;;;;;;;;;;;;4.93;64.38;101513.22;6103032;23;1299;-96
2022/01/23 15:45:05;;;;;;;;;;;;;;;4.94;64.39;101509.59;6103521;23;1305;-95
2022/01/23 15:47:39;;;;;;;;;;;;;;;4.93;64.42;101499.06;6102778;23;1422;-95
2022/01/23 15:50:06;;;;;;;;;;;;;;;4.92;64.45;101497.38;6103590;23;1921;-95
2022/01/23 15:52:32;;;;;;;;;;;;;;;4.94;64.50;101498.91;6102859;23;1210;-96
2022/01/23 15:55:01;;;;;;;;;;;;;;;4.96;64.33;101501.41;6102397;23;1145;-96
2022/01/23 15:57:28;;;;;;;;;;;;;;;4.97;64.34;101495.91;6102890;23;1268;-95
2022/01/23 15:59:54;;;;;;;;;;;;;;;4.95;63.96;101492.56;6103471;23;1389;-95
2022/01/23 16:02:21;;;;;;;;;;;;;;;4.95;64.49;101499.75;6103043;23;1214;-96
2022/01/23 16:04:52;;;;;;;;;;;;;;;4.95;64.29;101497.06;6103102;23;1362;-95
2022/01/23 16:07:19;;;;;;;;;;;;;;;4.96;64.17;101498.72;6104483;23;1398;-96
2022/01/23 16:09:45;;;;;;;;;;;;;;;4.97;64.35;101497.72;6105116;23;1897;-95
2022/01/23 16:12:15;;;;;;;;;;;;;;;4.98;64.38;101505.59;6104853;23;1231;-95
2022/01/23 16:14:42;;;;;;;;;;;;;;;4.95;64.41;101508.56;6104931;23;1178;-95
2022/01/23 16:17:08;;;;;;;;;;;;;;;4.95;64.34;101505.91;6104570;23;1178;-95
2022/01/23 16:19:35;;;;;;;;;;;;;;;4.95;64.43;101499.75;6104980;23;1173;-96
2022/01/23 16:22:03;;;;;;;;;;;;;;;4.93;64.41;101504.38;6104140;23;1699;-96
2022/01/23 16:24:29;;;;;;;;;;;;;;;4.94;64.47;101506.06;6104313;23;1194;-95
2022/01/23 16:26:56;;;;;;;;;;;;;;;4.95;64.28;101491.72;6105197;23;1432;-95
2022/01/23 16:29:22;;;;;;;;;;;;;;;4.94;64.31;101493.56;6104606;23;1878;-96
2022/01/23 16:31:50;;;;;;;;;;;;;;;4.94;64.39;101506.06;6104803;23;1323;-96
2022/01/23 16:34:17;;;;;;;;;;;;;;;4.94;64.75;101506.06;6104582;23;1360;-96
2022/01/23 16:36:43;;;;;;;;;;;;;;;4.94;64.37;101498.03;6104270;23;1287;-95
2022/01/23 16:39:10;;;;;;;;;;;;;;;4.94;64.47;101495.38;6104985;23;1263;-95
2022/01/23 16:41:37;;;;;;;;;;;;;;;4.92;64.43;101492.88;6104545;23;1294;-95
2022/01/23 16:44:04;;;;;;;;;;;;;;;4.91;64.55;101493.03;6104925;23;1287;-96
2022/01/23 16:46:30;;;;;;;;;;;;;;;4.90;64.37;101484.19;6104834;23;1389;-96
2022/01/23 16:48:57;;;;;;;;;;;;;;;4.90;64.52;101478.00;6104315;23;1966;-96
2022/01/23 16:51:23;;;;;;;;;;;;;;;4.91;64.47;101485.00;6104550;23;1287;-96
2022/01/23 16:53:52;;;;;;;;;;;;;;;4.90;64.34;101486.84;6105004;23;1216;-96
2022/01/23 16:56:18;;;;;;;;;;;;;;;4.91;64.37;101485.88;6104244;23;1234;-96
2022/01/23 16:58:45;;;;;;;;;;;;;;;4.90;64.46;101478.84;6104458;23;1177;-95
2022/01/23 17:01:11;;;;;;;;;;;;;;;4.91;64.48;101483.22;6104672;23;1319;-96
2022/01/23 17:03:38;;;;;;;;;;;;;;;4.89;64.45;101479.84;6104417;23;1081;-96
2022/01/23 17:06:07;;;;;;;;;;;;;;;4.88;64.48;101477.31;6092293;23;1403;-95
2022/01/23 17:08:36;;;;;;;;;;;;;;;4.88;64.49;101464.84;6076321;23;1315;-95
2022/01/23 17:11:02;;;;;;;;;;;;;;;4.87;64.40;101468.50;6075654;23;1897;-95
2022/01/23 17:13:29;;;;;;;;;;;;;;;4.87;64.28;101460.47;6075610;23;1340;-96
2022/01/23 17:15:56;;;;;;;;;;;;;;;4.88;64.50;101466.66;6075106;23;1273;-96
2022/01/23 17:18:23;;;;;;;;;;;;;;;4.90;64.23;101470.00;6075315;23;1279;-96
2022/01/23 17:20:50;;;;;;;;;;;;;;;4.88;64.47;101467.50;6075301;23;1229;-96
2022/01/23 17:23:17;;;;;;;;;;;;;;;4.86;64.51;101455.31;6075607;23;1289;-95
2022/01/23 17:25:44;;;;;;;;;;;;;;;4.87;64.44;101452.47;6075172;23;1149;-96
2022/01/23 17:28:10;;;;;;;;;;;;;;;4.86;64.51;101458.00;6075362;23;1221;-96
2022/01/23 17:30:37;;;;;;;;;;;;;;;4.85;64.34;101459.78;6074772;23;1902;-96
2022/01/23 17:33:03;;;;;;;;;;;;;;;4.86;64.45;101458.00;6075066;23;1184;-96
2022/01/23 17:35:30;;;;;;;;;;;;;;;4.86;64.42;101463.31;6075563;23;1244;-95
2022/01/23 17:37:57;;;;;;;;;;;;;;;4.87;64.40;101470.31;6075741;23;1280;-96
2022/01/23 17:40:23;;;;;;;;;;;;;;;4.85;64.66;101459.78;6075736;23;1165;-96
2022/01/23 17:42:50;;;;;;;;;;;;;;;4.84;64.55;101462.63;6075211;23;1172;-96
2022/01/23 17:45:23;;;;;;;;;;;;;;;4.83;64.55;101460.97;6074912;23;1273;-96
2022/01/23 17:48:19;;;;;;;;;;;;;;;4.84;64.64;101457.31;6076800;23;1153;-95
2022/01/23 17:50:45;;;;;;;;;;;;;;;4.83;64.53;101459.13;6076310;23;1933;-95
2022/01/23 17:53:13;;;;;;;;;;;;;;;4.84;64.54;101457.31;6076083;23;1289;-95
2022/01/23 17:55:40;;;;;;;;;;;;;;;4.83;64.47;101458.31;6100626;23;985;-96
2022/01/23 17:58:06;;;;;;;;;;;;;;;4.81;64.51;101454.94;6074695;23;1273;-96
2022/01/23 18:00:37;;;;;;;;;;;;;;;4.81;64.48;101453.13;6074639;23;1168;-95
2022/01/23 18:03:03;;;;;;;;;;;;;;;4.82;64.75;101451.28;6074983;23;1264;-96
2022/01/23 18:05:34;;;;;;;;;;;;;;;4.80;64.61;101450.63;6079607;23;1362;-96
2022/01/23 18:08:00;;;;;;;;;;;;;;;4.80;64.70;101450.63;6103796;23;1250;-96
2022/01/23 18:10:27;;;;;;;;;;;;;;;4.80;64.63;101448.78;6103793;23;1901;-96
2022/01/23 18:12:54;;;;;;;;;;;;;;;4.80;64.62;101448.78;6103368;23;1269;-96
2022/01/23 18:15:23;;;;;;;;;;;;;;;4.81;64.47;101445.09;6104028;23;1160;-95
2022/01/23 18:17:53;;;;;;;;;;;;;;;4.80;64.65;101438.09;6103930;23;1173;-95
2022/01/23 18:20:21;;;;;;;;;;;;;;;4.82;64.54;101443.28;6105073;23;1349;-96
2022/01/23 18:22:48;;;;;;;;;;;;;;;4.81;64.49;101455.78;6103740;23;1374;-96
2022/01/23 18:25:15;;;;;;;;;;;;;;;4.82;64.48;101437.94;6103443;23;1228;-96
2022/01/23 18:27:42;;;;;;;;;;;;;;;4.84;64.42;101433.28;6103619;23;1232;-95
2022/01/23 18:30:08;;;;;;;;;;;;;;;4.84;64.21;101438.63;6103751;23;1901;-96
2022/01/23 18:32:35;;;;;;;;;;;;;;;4.84;64.56;101428.78;6103577;23;1296;-96
2022/01/23 18:35:01;;;;;;;;;;;;;;;4.83;64.37;101431.63;6103925;23;1205;-96
2022/01/23 18:37:28;;;;;;;;;;;;;;;4.84;64.28;101449.28;6104081;23;1177;-95
2022/01/23 18:39:55;;;;;;;;;;;;;;;4.84;64.32;101444.78;6103273;23;1185;-96
2022/01/23 18:42:21;;;;;;;;;;;;;;;4.86;64.33;101441.97;6103776;23;1161;-95
2022/01/23 18:44:48;;;;;;;;;;;;;;;4.85;64.26;101433.09;6103735;23;1363;-96
2022/01/23 18:47:15;;;;;;;;;;;;;;;4.85;64.35;101433.09;6103301;23;1315;-95
2022/01/23 18:49:42;;;;;;;;;;;;;;;4.85;64.36;101438.44;6103491;23;1939;-96
2022/01/23 18:52:08;;;;;;;;;;;;;;;4.87;64.27;101427.63;6103354;23;1285;-95
2022/01/23 18:54:40;;;;;;;;;;;;;;;4.88;64.24;101432.81;6102836;23;1189;-95
2022/01/23 18:57:11;;;;;;;;;;;;;;;4.87;64.22;101430.28;6103566;23;1288;-96
2022/01/23 18:59:46;;;;;;;;;;;;;;;4.89;64.02;101423.78;6103673;23;1178;-95
2022/01/23 19:02:15;;;;;;;;;;;;;;;4.89;64.14;101418.44;6103543;23;1344;-96
2022/01/23 19:04:47;;;;;;;;;;;;;;;4.88;64.16;101411.44;6103776;23;1216;-95
2022/01/23 19:07:20;;;;;;;;;;;;;;;4.89;64.11;101410.44;6102812;23;1274;-96
2022/01/23 19:09:48;;;;;;;;;;;;;;;4.90;64.32;101412.09;6103164;23;1902;-96
2022/01/23 19:12:14;;;;;;;;;;;;;;;4.88;64.17;101408.78;6103401;23;1240;-96
2022/01/23 19:14:44;;;;;;;;;;;;;;;4.88;64.05;101398.09;6103480;23;1326;-96
2022/01/23 19:17:12;;;;;;;;;;;;;;;4.90;64.00;101392.59;6102945;23;1147;-95
2022/01/23 19:19:39;;;;;;;;;;;;;;;4.90;63.97;101385.41;6103207;23;1179;-96
2022/01/23 19:22:05;;;;;;;;;;;;;;;4.89;64.20;101377.59;6103223;23;1299;-96
2022/01/23 19:24:32;;;;;;;;;;;;;;;4.90;64.11;101373.91;6103951;23;1149;-96
2022/01/23 19:27:00;;;;;;;;;;;;;;;4.92;64.11;101379.94;6103425;23;1296;-96
2022/01/23 19:29:32;;;;;;;;;;;;;;;4.93;64.06;101381.59;6102816;23;1920;-95
2022/01/23 19:31:59;;;;;;;;;;;;;;;4.93;64.19;101389.59;6103479;23;1149;-96
2022/01/23 19:34:26;;;;;;;;;;;;;;;4.93;64.05;101379.75;6102750;23;1332;-95
2022/01/23 19:36:53;;;;;;;;;;;;;;;4.92;63.99;101377.25;6103383;23;1208;-96
2022/01/23 19:39:24;;;;;;;;;;;;;;;4.90;64.25;101371.22;6103193;23;1316;-96
2022/01/23 19:42:00;;;;;;;;;;;;;;;4.91;64.10;101372.91;6103275;23;1230;-96
2022/01/23 19:44:32;;;;;;;;;;;;;;;4.91;64.10;101376.44;6102945;23;1226;-95
2022/01/23 19:47:09;;;;;;;;;;;;;;;4.92;64.14;101370.06;6103800;23;1306;-96
2022/01/23 19:49:41;;;;;;;;;;;;;;;4.91;64.12;101365.75;6102673;23;1939;-96
2022/01/23 19:52:08;;;;;;;;;;;;;;;4.92;64.08;101364.75;6103393;23;1169;-96
2022/01/23 19:54:35;;;;;;;;;;;;;;;4.91;64.20;101371.09;6103241;23;1299;-96
2022/01/23 19:57:02;;;;;;;;;;;;;;;4.92;64.12;101363.91;6102400;23;1349;-95
2022/01/23 19:59:30;;;;;;;;;;;;;;;4.96;64.04;101365.25;6103095;23;1288;-96
2022/01/23 20:01:57;;;;;;;;;;;;;;;4.93;64.03;101369.06;6102631;23;1141;-95
2022/01/23 20:04:26;;;;;;;;;;;;;;;4.92;64.07;101358.56;6102709;23;1158;-96
2022/01/23 20:06:52;;;;;;;;;;;;;;;4.89;64.36;101354.38;6102101;23;1354;-95
2022/01/23 20:09:21;;;;;;;;;;;;;;;4.88;64.21;101350.06;6103506;23;1187;-96
2022/01/23 20:14:35;;;;;;;;;;;;;;;4.90;64.35;101342.69;6102079;23;1145;-96
2022/01/23 20:17:01;;;;;;;;;;;;;;;4.87;64.20;101345.69;6102183;23;1277;-96
2022/01/23 20:19:28;;;;;;;;;;;;;;;4.88;64.23;101347.38;6102583;23;1248;-96
2022/01/23 20:22:07;;;;;;;;;;;;;;;4.87;64.26;101343.03;6102167;23;1158;-96
2022/01/23 20:24:34;;;;;;;;;;;;;;;4.88;64.32;101342.06;6102262;23;1172;-96
2022/01/23 20:27:01;;;;;;;;;;;;;;;4.87;64.11;101343.03;6103345;23;1228;-95
2022/01/23 20:29:27;;;;;;;;;;;;;;;4.87;64.55;101334.19;6102982;23;1294;-96
2022/01/23 20:31:55;;;;;;;;;;;;;;;4.88;64.33;101344.72;6102987;23;1948;-96
2022/01/23 20:34:22;;;;;;;;;;;;;;;4.87;64.43;101345.69;6102689;23;1219;-95
2022/01/23 20:36:48;;;;;;;;;;;;;;;4.86;64.24;101338.69;6102716;23;1300;-95
2022/01/23 20:39:15;;;;;;;;;;;;;;;4.87;64.20;101326.19;6103112;23;1196;-96
2022/01/23 20:41:41;;;;;;;;;;;;;;;4.87;64.29;101320.84;6102680;23;1152;-96
2022/01/23 20:44:08;;;;;;;;;;;;;;;4.85;64.23;101322.84;6102047;23;1303;-96
2022/01/23 20:46:35;;;;;;;;;;;;;;;4.86;64.38;101328.03;6102753;23;1205;-94
2022/01/23 20:49:01;;;;;;;;;;;;;;;4.85;64.15;101318.31;6104301;23;1288;-96
2022/01/23 20:51:45;;;;;;;;;;;;;;;4.86;64.16;101327.19;6103057;23;1941;-95
2022/01/23 20:54:12;;;;;;;;;;;;;;;4.84;64.37;101335.34;6104862;23;1190;-96
2022/01/23 20:56:39;;;;;;;;;;;;;;;4.85;64.31;101326.34;6103922;23;1395;-96
2022/01/23 20:59:05;;;;;;;;;;;;;;;4.85;64.39;101329.00;6104615;23;1276;-95
2022/01/23 21:01:32;;;;;;;;;;;;;;;4.86;64.21;101324.53;6104556;23;1263;-96
2022/01/23 21:03:58;;;;;;;;;;;;;;;4.84;64.33;101321.16;6104182;23;1174;-96
2022/01/23 21:06:25;;;;;;;;;;;;;;;4.82;64.33;101318.66;6104237;23;1349;-96
2022/01/23 21:08:51;;;;;;;;;;;;;;;4.82;64.38;101318.66;6105142;23;1192;-96
2022/01/23 21:11:22;;;;;;;;;;;;;;;4.84;64.48;101310.50;6103840;23;1897;-96
2022/01/23 21:13:58;;;;;;;;;;;;;;;4.84;64.26;101303.31;6104743;23;1142;-96
2022/01/23 21:16:42;;;;;;;;;;;;;;;4.82;64.36;101297.28;6104094;23;1316;-96
2022/01/23 21:19:34;;;;;;;;;;;;;;;4.82;64.41;101293.81;6103789;23;1139;-96
2022/01/23 21:22:15;;;;;;;;;;;;;;;4.83;64.31;101285.66;6104077;23;1276;-96
2022/01/23 21:31:12;;;;;;;;;;;;;;;4.83;64.29;101292.81;6103246;23;1938;-96
2022/01/23 21:41:26;;;;;;;;;;;;;;;4.83;64.32;101293.66;6103363;23;1425;-96
2022/01/23 21:43:53;;;;;;;;;;;;;;;4.83;64.27;101301.66;6104131;23;1192;-96
2022/01/23 21:46:19;;;;;;;;;;;;;;;4.86;64.26;101287.16;6104084;23;1254;-96
2022/01/23 21:48:46;;;;;;;;;;;;;;;4.87;64.18;101286.16;6104132;23;1173;-96
2022/01/23 21:51:12;;;;;;;;;;;;;;;4.87;64.20;101289.63;6104355;23;1897;-95
2022/01/23 21:53:39;;;;;;;;;;;;;;;4.85;64.08;101272.94;6103870;23;1298;-95
2022/01/23 21:56:06;;;;;;;;;;;;;;;4.85;64.27;101282.78;6102998;23;1337;-95
2022/01/23 21:58:32;;;;;;;;;;;;;;;4.85;64.19;101267.59;6103706;23;1283;-95
2022/01/23 22:00:59;;;;;;;;;;;;;;;4.88;64.23;101255.78;6104017;23;1275;-95
2022/01/23 22:03:27;;;;;;;;;;;;;;;4.88;64.01;101245.97;6103894;23;1504;-95
2022/01/23 22:05:56;;;;;;;;;;;;;;;4.88;64.16;101240.63;6129893;23;1378;-96
2022/01/23 22:08:23;;;;;;;;;;;;;;;4.87;64.02;101238.94;6103333;23;1238;-96
2022/01/23 22:11:09;;;;;;;;;;;;;;;4.90;64.04;101241.25;6103729;23;1935;-95
2022/01/23 22:16:20;;;;;;;;;;;;;;;4.90;64.06;101235.09;6103904;23;1125;-95
2022/01/23 22:18:47;;;;;;;;;;;;;;;4.88;63.96;101243.28;6103603;23;1204;-95
2022/01/23 22:21:15;;;;;;;;;;;;;;;4.90;64.07;101248.44;6104839;23;1327;-95
2022/01/23 22:29:07;;;;;;;;;;;;;;;4.92;64.05;101246.44;6103306;23;1230;-95
2022/01/23 22:31:33;;;;;;;;;;;;;;;4.93;63.96;101240.94;6103451;23;1889;-95
2022/01/23 22:34:00;;;;;;;;;;;;;;;4.92;63.93;101225.09;6103371;23;1269;-95
2022/01/23 22:36:26;;;;;;;;;;;;;;;4.93;63.87;101216.91;6103330;23;1281;-95
2022/01/23 22:38:53;;;;;;;;;;;;;;;4.95;63.88;101214.09;6103118;23;1295;-95
2022/01/23 22:41:19;;;;;;;;;;;;;;;4.93;63.83;101208.91;6103879;23;1242;-95
2022/01/23 22:43:49;;;;;;;;;;;;;;;4.94;63.88;101221.25;6103206;23;1355;-95
2022/01/23 22:46:27;;;;;;;;;;;;;;;4.95;63.75;101212.25;6103733;23;1245;-95
2022/01/23 22:48:53;;;;;;;;;;;;;;;4.98;63.87;101216.41;6103367;23;1375;-95
2022/01/23 22:51:20;;;;;;;;;;;;;;;4.95;63.83;101201.56;6103543;23;1940;-96
2022/01/23 22:53:46;;;;;;;;;;;;;;;4.99;63.75;101202.88;6103737;23;1157;-96
2022/01/23 22:56:13;;;;;;;;;;;;;;;4.99;63.58;101215.41;6102979;23;1175;-95
2022/01/23 22:58:39;;;;;;;;;;;;;;;4.98;63.96;101208.41;6103208;23;1173;-95
2022/01/23 23:01:06;;;;;;;;;;;;;;;5.01;63.63;101197.41;6103331;23;1311;-95
2022/01/23 23:03:32;;;;;;;;;;;;;;;4.99;63.93;101212.75;6103252;23;1264;-95
2022/01/23 23:05:59;;;;;;;;;;;;;;;5.00;63.81;101214.44;6103395;23;1293;-95
2022/01/23 23:08:25;;;;;;;;;;;;;;;4.99;63.70;101202.88;6103311;23;1271;-95
2022/01/23 23:10:53;;;;;;;;;;;;;;;5.01;63.78;101194.72;6103183;23;1897;-96
2022/01/23 23:13:21;;;;;;;;;;;;;;;5.00;63.70;101198.41;6102907;23;1125;-96
2022/01/23 23:15:54;;;;;;;;;;;;;;;5.03;63.88;101191.88;6102855;23;1250;-95
2022/01/23 23:18:23;;;;;;;;;;;;;;;5.01;63.66;101197.41;6103162;23;1169;-95
2022/01/23 23:20:59;;;;;;;;;;;;;;;5.02;63.75;101199.06;6103518;23;1354;-95
2022/01/23 23:23:25;;;;;;;;;;;;;;;5.06;63.79;101215.56;6102895;23;1229;-95
2022/01/23 23:25:52;;;;;;;;;;;;;;;5.01;63.77;101195.56;6102938;23;1240;-95
2022/01/23 23:28:18;;;;;;;;;;;;;;;4.98;63.74;101193.22;6102887;23;1196;-95
2022/01/23 23:30:45;;;;;;;;;;;;;;;5.03;63.87;101194.53;6103538;23;1901;-95
2022/01/23 23:33:11;;;;;;;;;;;;;;;5.00;63.70;101185.06;6102822;23;1283;-95
2022/01/23 23:35:38;;;;;;;;;;;;;;;4.98;63.97;101179.03;6103020;23;1289;-95
2022/01/23 23:38:05;;;;;;;;;;;;;;;4.99;63.84;101186.03;6102647;23;1286;-95
2022/01/23 23:40:32;;;;;;;;;;;;;;;5.00;64.01;101199.22;6103360;23;1185;-95
2022/01/23 23:43:04;;;;;;;;;;;;;;;5.01;63.80;101205.41;6103480;23;1235;-95
2022/01/23 23:45:30;;;;;;;;;;;;;;;5.01;63.85;101195.56;6103140;23;1163;-94
2022/01/23 23:47:57;;;;;;;;;;;;;;;5.00;63.96;101191.22;6102798;23;1191;-95
2022/01/23 23:50:23;;;;;;;;;;;;;;;4.99;63.67;101186.88;6104473;23;1889;-94
2022/01/23 23:52:53;;;;;;;;;;;;;;;5.00;63.85;101195.75;6105364;23;1216;-94
2022/01/23 23:55:19;;;;;;;;;;;;;;;5.01;63.80;101200.06;6104421;23;1235;-95
2022/01/23 23:57:47;;;;;;;;;;;;;;;5.00;63.91;101195.75;6103378;23;1179;-95
